Etusivu
METAR-TAF:

METAR-TAF

Lentoasemat :

Dakar, Senegal

Leveyspiiri: 14-44N, Pituuspiiri: 017-30W, korkeus merenpinnasta: 27 m

Tämänhetkinen sää

Tämä raportti tehtiin 23 minuuttia sitten, kello 18.30 UTC
Tuuli 4 kn lännestä, vaihdellen etelän ja lännen/luoteen välillä
Lämpötila 30°C
Kosteus 75%
Ilmanpaine 1013 hPa
Näkyvyys 10 km tai enemmän
Muutamia pilviä 1000 ft:n korkeudessa

METAR: GOOY 191830Z 26004KT 190V290 9999 FEW010 30/25 Q1013 NOSIG

Aika: 18:53 (18:53 UTC)

Sääennuste

Tämä raportti tehtiin 1 tunti ja 23 minuuttia sitten, kello 17.30 UTC
Ennuste voimassa 19. päivästä klo 18 UTC - 20. päivään klo 24 UTC
Tuuli 5 kn luoteesta
Näkyvyys 10 km tai enemmän
Hajanaisia pilviä 1300 ft:n korkeudessa

TAF: GOOY 191730Z 1918/2024 32005KT 9999 SCT013

Säähavainnot ja -ennusteet yli 4000 lentoasemalta (METAR- ja TAF-raportit).

Käytössä olevat sääasemat on merkitty karttaan keltaisilla ja punaisilla pisteillä.

Aseta hiiri pisteen päälle nähdäksesi sääaseman nimen.

Klikkaa sitten nähdäksesi säähavainnot ja -ennusteet.

Kartan vaihtaminen: klikkaa mustalla rastilla varustettuja vihreitä pisteitä, niin voit zoomata sisään; viivalla varustettua vihreää pistettä, niin voit zoomata ulos tai vihreitä nuolia, niin pääset viereisille kartoille.


METAR-TAF: